KGCN/GCN METAR and TAF weather

Enter ICAO airport designator
Station Type Date Time Source
KGCN METAR 2019/08/25 02:54 UTC NOAA

KGCN 250254Z AUTO 23004KT 10SM CLR 22/M01 A3028 RMK AO2 SLP151 T02171011 53006


Station Type Date Time Source
KGCN Decoded METAR 2019/08/25 02:54 UTC NOAA

Station name not available
Aug 24, 2019 - 10:54 PM EDT / 2019.08.25 0254 UTC
Wind: from the SW (230 degrees) at 5 MPH (4 KT):0
Visibility: 10 mile(s):0
Sky conditions: clear
Temperature: 71.1 F (21.7 C)
Dew Point: 30.0 F (-1.1 C)
Relative Humidity: 21%
Pressure (altimeter): 30.28 in. Hg (1025 hPa)
Pressure tendency: 0.02 inches (0.6 hPa) higher than three hours ago
ob: KGCN 250254Z AUTO 23004KT 10SM CLR 22/M01 A3028 RMK AO2 SLP151 T02171011 53006
cycle: 3

Station Type Date Time Source
KGCN TAF 2019/08/24 18:42 UTC NOAA

TAF KGCN 241740Z 2418/2518 26010G18KT P6SM SKC
FM250130 VRB04KT P6SM SKC

Example: see airport list